createdAt,value
2022-11-27T00:00:32.820Z,3.70
2022-11-27T00:02:40.699Z,3.70
2022-11-27T00:04:46.015Z,3.70
2022-11-27T00:06:53.567Z,3.60
2022-11-27T00:08:59.378Z,3.50
2022-11-27T00:11:10.669Z,3.50
2022-11-27T00:13:16.035Z,3.50
2022-11-27T00:15:21.896Z,3.40
2022-11-27T00:17:27.124Z,3.40
2022-11-27T00:19:32.082Z,3.40
2022-11-27T00:21:39.573Z,3.40
2022-11-27T00:23:47.543Z,3.40
2022-11-27T00:25:54.220Z,3.30
2022-11-27T00:27:59.608Z,3.30
2022-11-27T00:30:04.699Z,3.30
2022-11-27T00:32:09.961Z,3.20
2022-11-27T00:34:14.927Z,3.10
2022-11-27T00:36:19.955Z,3.10
2022-11-27T00:38:25.998Z,3.10
2022-11-27T00:40:33.794Z,3.10
2022-11-27T00:42:39.159Z,3.10
2022-11-27T00:44:44.335Z,3.10
2022-11-27T00:46:50.068Z,3.00
2022-11-27T00:48:55.100Z,3.00
2022-11-27T00:51:03.436Z,2.90
2022-11-27T00:53:08.852Z,2.90
2022-11-27T00:55:15.423Z,2.90
2022-11-27T00:57:22.973Z,2.80
2022-11-27T00:59:29.122Z,2.80
2022-11-27T01:01:38.169Z,2.80
2022-11-27T01:03:43.209Z,2.70
2022-11-27T01:05:48.225Z,2.50
2022-11-27T01:07:53.519Z,2.40
2022-11-27T01:09:59.359Z,2.10
2022-11-27T01:12:04.687Z,2.00
2022-11-27T01:14:17.127Z,1.70
2022-11-27T01:16:25.169Z,1.70
2022-11-27T01:18:31.036Z,1.50
2022-11-27T01:20:36.399Z,1.60
2022-11-27T01:22:42.067Z,1.60
2022-11-27T01:24:47.458Z,1.50
2022-11-27T01:26:53.127Z,1.50
2022-11-27T01:29:00.279Z,1.20
2022-11-27T01:31:14.346Z,1.20
2022-11-27T01:33:19.801Z,1.40
2022-11-27T01:35:25.140Z,1.60
2022-11-27T01:37:30.871Z,1.70
2022-11-27T01:39:35.884Z,1.80
2022-11-27T01:41:42.672Z,2.00
2022-11-27T01:43:50.944Z,2.10
2022-11-27T01:45:55.929Z,2.20
2022-11-27T01:48:06.019Z,2.20
2022-11-27T01:50:18.291Z,2.20
2022-11-27T01:52:29.793Z,2.10
2022-11-27T01:54:40.399Z,2.00
2022-11-27T01:56:49.520Z,2.10
2022-11-27T01:58:54.858Z,2.20
2022-11-27T02:01:01.233Z,2.10
2022-11-27T02:03:09.850Z,2.00
2022-11-27T02:05:20.389Z,1.90
2022-11-27T02:07:27.341Z,1.90
2022-11-27T02:09:34.191Z,1.90
2022-11-27T02:11:54.808Z,1.90
2022-11-27T02:14:13.488Z,2.10
2022-11-27T02:16:30.135Z,2.20
2022-11-27T02:18:46.334Z,2.20
2022-11-27T02:21:00.808Z,2.20
2022-11-27T02:23:50.785Z,2.10
2022-11-27T02:26:21.050Z,2.10
2022-11-27T02:28:45.920Z,2.10
2022-11-27T02:31:00.608Z,2.00
2022-11-27T02:33:14.082Z,2.10
2022-11-27T02:35:25.956Z,2.20
2022-11-27T02:37:38.392Z,2.20
2022-11-27T02:39:52.580Z,2.10
2022-11-27T02:42:06.292Z,2.10
2022-11-27T02:44:13.550Z,2.10
2022-11-27T02:46:23.618Z,2.10
2022-11-27T02:48:36.040Z,2.10
2022-11-27T02:50:44.769Z,2.10
2022-11-27T02:52:53.160Z,2.10
2022-11-27T02:55:03.425Z,2.10
2022-11-27T02:57:12.016Z,2.10
2022-11-27T02:59:20.290Z,2.10
2022-11-27T03:01:31.097Z,2.00
2022-11-27T03:03:45.629Z,2.00
2022-11-27T03:05:55.560Z,1.90
2022-11-27T03:08:05.642Z,1.80
2022-11-27T03:10:19.295Z,1.90
2022-11-27T03:12:26.344Z,1.90
2022-11-27T03:14:32.205Z,1.90
2022-11-27T03:16:47.748Z,1.90
2022-11-27T03:19:02.164Z,2.00
2022-11-27T03:21:19.077Z,1.90
2022-11-27T03:23:25.193Z,1.90
2022-11-27T03:25:30.240Z,1.90
2022-11-27T03:27:41.482Z,1.90
2022-11-27T03:29:51.791Z,1.90
2022-11-27T03:32:00.683Z,1.90
2022-11-27T03:34:07.091Z,1.80
2022-11-27T03:36:19.052Z,1.80
2022-11-27T03:38:24.318Z,1.80
2022-11-27T03:40:37.259Z,1.70
2022-11-27T03:42:56.984Z,1.70
2022-11-27T03:45:14.107Z,1.50
2022-11-27T03:47:42.902Z,1.50
2022-11-27T03:50:08.569Z,1.60
2022-11-27T03:52:27.183Z,1.60
2022-11-27T03:54:44.916Z,1.60
2022-11-27T03:56:58.686Z,1.50
2022-11-27T03:59:11.912Z,1.40
2022-11-27T04:01:22.256Z,1.40
2022-11-27T04:03:34.351Z,1.40
2022-11-27T04:05:39.816Z,1.40
2022-11-27T04:07:45.921Z,1.50
2022-11-27T04:09:50.905Z,1.50
2022-11-27T04:11:56.228Z,1.50
2022-11-27T04:14:01.972Z,1.50
2022-11-27T04:16:07.921Z,1.50
2022-11-27T04:18:12.927Z,1.30
2022-11-27T04:20:20.749Z,1.30
2022-11-27T04:22:25.771Z,0.90
2022-11-27T04:24:31.990Z,1.00
2022-11-27T04:26:36.964Z,0.60
2022-11-27T04:28:42.484Z,0.60
2022-11-27T04:30:48.107Z,0.50
2022-11-27T04:32:53.245Z,0.60
2022-11-27T04:34:58.536Z,0.50
2022-11-27T04:37:06.574Z,0.50
2022-11-27T04:39:13.204Z,0.70
2022-11-27T04:41:18.147Z,0.90
2022-11-27T04:43:23.730Z,0.90
2022-11-27T04:45:28.735Z,1.00
2022-11-27T04:47:34.680Z,0.90
2022-11-27T04:49:40.084Z,0.90
2022-11-27T04:51:45.820Z,0.90
2022-11-27T04:53:55.555Z,0.70
2022-11-27T04:56:00.949Z,0.60
2022-11-27T04:58:06.578Z,0.60
2022-11-27T05:00:15.471Z,0.80
2022-11-27T05:02:22.858Z,0.90
2022-11-27T05:04:28.244Z,0.90
2022-11-27T05:06:33.575Z,0.50
2022-11-27T05:08:39.617Z,0.40
2022-11-27T05:10:47.679Z,0.40
2022-11-27T05:12:53.271Z,0.50
2022-11-27T05:15:03.022Z,0.40
2022-11-27T05:17:09.754Z,0.50
2022-11-27T05:19:16.007Z,0.50
2022-11-27T05:21:21.340Z,0.60
2022-11-27T05:23:27.251Z,0.70
2022-11-27T05:25:32.203Z,0.70
2022-11-27T05:27:39.760Z,0.80
2022-11-27T05:29:45.028Z,0.80
2022-11-27T05:31:50.392Z,0.80
2022-11-27T05:33:55.583Z,0.80
2022-11-27T05:36:03.022Z,0.70
2022-11-27T05:38:08.179Z,0.70
2022-11-27T05:40:14.245Z,0.70
2022-11-27T05:42:19.628Z,0.70
2022-11-27T05:44:27.206Z,0.80
2022-11-27T05:46:32.585Z,0.80
2022-11-27T05:48:38.328Z,0.80
2022-11-27T05:50:43.397Z,0.70
2022-11-27T05:52:48.723Z,0.70
2022-11-27T05:54:54.995Z,0.70
2022-11-27T05:57:00.357Z,0.60
2022-11-27T05:59:05.460Z,0.30
2022-11-27T06:01:14.720Z,0.30
2022-11-27T06:03:20.497Z,0.20
2022-11-27T06:05:25.990Z,0.20
2022-11-27T06:07:30.978Z,0.30
2022-11-27T06:09:35.995Z,0.20
2022-11-27T06:11:40.951Z,0.20
2022-11-27T06:13:47.642Z,0.30
2022-11-27T06:15:53.160Z,0.20
2022-11-27T06:18:01.215Z,-0.10
2022-11-27T06:20:07.710Z,-0.20
2022-11-27T06:22:12.689Z,-0.10
2022-11-27T06:24:18.203Z,0.10
2022-11-27T06:26:26.295Z,0.30
2022-11-27T06:29:10.920Z,0.30
2022-11-27T06:31:18.846Z,0.30
2022-11-27T06:33:29.778Z,0.30
2022-11-27T06:35:35.442Z,0.40
2022-11-27T06:37:40.449Z,0.40
2022-11-27T06:39:45.456Z,0.40
2022-11-27T06:41:50.484Z,0.30
2022-11-27T06:43:55.864Z,0.30
2022-11-27T06:46:02.460Z,0.30
2022-11-27T06:48:07.897Z,0.30
2022-11-27T06:50:15.586Z,0.30
2022-11-27T06:52:20.972Z,0.40
2022-11-27T06:54:26.710Z,0.40
2022-11-27T06:56:35.519Z,0.30
2022-11-27T06:58:41.284Z,0.10
2022-11-27T07:00:46.300Z,-0.20
2022-11-27T07:02:56.882Z,-0.20
2022-11-27T07:05:01.835Z,-0.10
2022-11-27T07:07:09.457Z,0.10
2022-11-27T07:09:14.960Z,0.20
2022-11-27T07:11:23.159Z,0.20
2022-11-27T07:13:28.375Z,0.20
2022-11-27T07:15:33.901Z,0.20
2022-11-27T07:17:39.296Z,0.20
2022-11-27T07:19:44.981Z,0.20
2022-11-27T07:21:49.917Z,0.20
2022-11-27T07:23:59.712Z,0.30
2022-11-27T07:26:09.357Z,0.30
2022-11-27T07:28:18.662Z,0.30
2022-11-27T07:30:24.332Z,0.40
2022-11-27T07:32:29.465Z,0.40
2022-11-27T07:34:34.431Z,0.40
2022-11-27T07:36:39.743Z,0.40
2022-11-27T07:38:45.082Z,0.40
2022-11-27T07:40:54.031Z,0.40
2022-11-27T07:43:01.500Z,0.40
2022-11-27T07:45:07.204Z,0.40
2022-11-27T07:47:12.213Z,0.50
2022-11-27T07:49:17.246Z,0.50
2022-11-27T07:51:25.042Z,0.60
2022-11-27T07:53:30.058Z,0.60
2022-11-27T07:55:35.114Z,0.30
2022-11-27T07:57:43.355Z,0.00
2022-11-27T07:59:48.400Z,0.10
2022-11-27T08:01:55.006Z,0.30
2022-11-27T08:04:00.545Z,0.40
2022-11-27T08:06:06.017Z,0.40
2022-11-27T08:08:11.454Z,0.50
2022-11-27T08:10:16.609Z,0.60
2022-11-27T08:12:21.542Z,0.70
2022-11-27T08:14:29.515Z,0.70
2022-11-27T08:16:36.758Z,0.70
2022-11-27T08:18:44.091Z,0.70
2022-11-27T08:20:49.995Z,0.70
2022-11-27T08:23:02.771Z,0.80
2022-11-27T08:25:09.813Z,0.90
2022-11-27T08:27:15.141Z,0.90
2022-11-27T08:29:20.280Z,0.90
2022-11-27T08:31:28.130Z,1.00
2022-11-27T08:33:35.910Z,1.10
2022-11-27T08:35:42.219Z,1.10
2022-11-27T08:37:48.375Z,1.20
2022-11-27T08:39:53.661Z,1.20
2022-11-27T08:42:00.806Z,1.20
2022-11-27T08:44:09.346Z,1.30
2022-11-27T08:46:16.884Z,1.40
2022-11-27T08:48:26.396Z,1.50
2022-11-27T08:50:33.202Z,1.50
2022-11-27T08:52:38.120Z,1.60
2022-11-27T08:54:44.291Z,1.60
2022-11-27T09:00:10.074Z,1.80
2022-11-27T09:02:19.043Z,1.70
2022-11-27T09:04:31.082Z,1.80
2022-11-27T09:06:41.002Z,1.80
2022-11-27T09:08:47.752Z,1.90
2022-11-27T09:10:55.578Z,2.00
2022-11-27T09:13:01.023Z,2.00
2022-11-27T09:15:06.844Z,2.00
2022-11-27T09:24:06.072Z,2.30
2022-11-27T09:26:14.868Z,2.50
2022-11-27T09:28:20.201Z,2.60
2022-11-27T09:30:25.427Z,2.70
2022-11-27T09:32:33.712Z,2.80
2022-11-27T09:34:39.117Z,2.90
2022-11-27T09:36:44.471Z,3.00
2022-11-27T09:38:50.094Z,3.00
2022-11-27T09:41:04.530Z,3.10
2022-11-27T09:43:15.360Z,3.40
2022-11-27T09:45:22.027Z,3.60
2022-11-27T09:47:41.692Z,4.10
2022-11-27T09:49:52.607Z,4.10
2022-11-27T09:52:05.628Z,4.20
2022-11-27T09:54:19.860Z,4.10
2022-11-27T09:56:28.603Z,4.30
2022-11-27T09:58:41.663Z,4.70
2022-11-27T10:00:47.303Z,4.90
2022-11-27T10:02:52.491Z,4.80
2022-11-27T10:05:13.497Z,4.70
2022-11-27T10:07:34.825Z,4.60
2022-11-27T10:09:58.248Z,4.70
2022-11-27T10:12:16.084Z,4.70
2022-11-27T10:14:49.772Z,4.70
2022-11-27T10:17:02.722Z,4.80
2022-11-27T10:19:18.061Z,4.90
2022-11-27T10:21:47.359Z,5.10
2022-11-27T10:24:00.017Z,5.40
2022-11-27T10:26:13.108Z,5.30
2022-11-27T10:28:32.497Z,5.40
2022-11-27T10:30:48.052Z,5.40
2022-11-27T10:32:59.693Z,5.50
2022-11-27T10:35:08.019Z,5.60
2022-11-27T10:37:22.322Z,5.60
2022-11-27T10:39:35.628Z,5.70
2022-11-27T10:41:50.147Z,5.80
2022-11-27T10:44:01.942Z,5.60
2022-11-27T10:46:15.997Z,5.60
2022-11-27T10:48:22.351Z,5.70
2022-11-27T10:50:27.311Z,5.80
2022-11-27T10:52:34.098Z,5.80
2022-11-27T10:54:42.891Z,5.80
2022-11-27T10:57:08.339Z,5.80
2022-11-27T10:59:22.314Z,5.80
2022-11-27T11:01:29.688Z,5.90
2022-11-27T11:03:35.383Z,5.90
2022-11-27T11:06:04.690Z,5.90
2022-11-27T11:08:19.262Z,5.90
2022-11-27T11:10:33.058Z,5.90
2022-11-27T11:12:38.578Z,5.90
2022-11-27T11:14:55.249Z,6.00
2022-11-27T11:17:00.270Z,6.10
2022-11-27T11:19:09.067Z,6.30
2022-11-27T11:21:22.058Z,6.20
2022-11-27T11:23:32.237Z,6.20
2022-11-27T11:25:37.404Z,6.20
2022-11-27T11:27:49.017Z,6.20
2022-11-27T11:30:01.622Z,6.20
2022-11-27T11:32:13.754Z,6.20
2022-11-27T11:34:24.560Z,6.20
2022-11-27T11:36:29.907Z,6.20
2022-11-27T11:38:35.731Z,6.30
2022-11-27T11:40:44.714Z,6.30
2022-11-27T11:42:58.213Z,6.40
2022-11-27T11:45:19.515Z,6.40
2022-11-27T11:47:29.222Z,6.50
2022-11-27T11:49:37.148Z,6.50
2022-11-27T11:52:14.834Z,6.50
2022-11-27T11:54:50.922Z,6.50
2022-11-27T11:57:00.305Z,6.60
2022-11-27T11:59:13.624Z,6.70
2022-11-27T12:01:48.284Z,6.70
2022-11-27T12:04:11.451Z,6.70
2022-11-27T12:06:33.092Z,6.70
2022-11-27T12:08:58.031Z,6.80
2022-11-27T12:11:15.187Z,6.80
2022-11-27T12:13:39.617Z,6.80
2022-11-27T12:15:52.735Z,6.90
2022-11-27T12:18:28.079Z,6.90
2022-11-27T12:20:51.770Z,7.00
2022-11-27T12:23:36.141Z,7.10
2022-11-27T12:25:48.375Z,7.30
2022-11-27T12:28:12.556Z,7.30
2022-11-27T12:30:20.713Z,7.20
2022-11-27T12:33:05.299Z,7.20
2022-11-27T12:35:35.333Z,7.10
2022-11-27T12:37:50.806Z,7.10
2022-11-27T12:40:14.775Z,7.10
2022-11-27T12:42:28.696Z,7.10
2022-11-27T12:44:53.493Z,7.00
2022-11-27T12:47:04.812Z,7.00
2022-11-27T12:49:21.941Z,7.00
2022-11-27T12:51:36.118Z,6.90
2022-11-27T12:53:49.115Z,6.90
2022-11-27T12:56:06.550Z,6.90
2022-11-27T12:58:21.137Z,6.90
2022-11-27T13:00:30.961Z,6.90
2022-11-27T13:02:43.819Z,6.90
2022-11-27T13:04:57.250Z,6.80
2022-11-27T13:07:13.083Z,6.80
2022-11-27T13:09:29.166Z,6.80
2022-11-27T13:11:39.567Z,6.80
2022-11-27T13:13:50.140Z,6.80
2022-11-27T13:16:00.576Z,6.80
2022-11-27T13:18:34.247Z,6.80
2022-11-27T13:20:43.045Z,6.80
2022-11-27T13:22:51.020Z,6.80
2022-11-27T13:24:56.172Z,6.70
2022-11-27T13:27:09.668Z,6.70
2022-11-27T13:29:26.483Z,6.70
2022-11-27T13:31:37.573Z,6.70
2022-11-27T13:33:47.344Z,6.80
2022-11-27T13:35:54.939Z,6.80
2022-11-27T13:38:12.524Z,6.80
2022-11-27T13:40:23.329Z,6.80
2022-11-27T13:42:29.472Z,6.80
2022-11-27T13:44:37.183Z,6.80
2022-11-27T13:46:53.930Z,6.80
2022-11-27T13:49:03.661Z,6.80
2022-11-27T13:51:11.021Z,6.80
2022-11-27T13:53:18.657Z,6.80
2022-11-27T13:55:31.446Z,6.70
2022-11-27T13:57:38.507Z,6.70
2022-11-27T13:59:44.124Z,6.70
2022-11-27T14:02:01.407Z,6.70
2022-11-27T14:04:11.004Z,6.70
2022-11-27T14:06:28.852Z,6.70
2022-11-27T14:08:39.156Z,6.60
2022-11-27T14:10:54.981Z,6.60
2022-11-27T14:13:03.690Z,6.60
2022-11-27T14:15:14.002Z,6.60
2022-11-27T14:17:30.100Z,6.60
2022-11-27T14:19:41.716Z,6.60
2022-11-27T14:21:49.319Z,6.50
2022-11-27T14:23:57.324Z,6.50
2022-11-27T14:26:27.044Z,6.50
2022-11-27T14:28:33.895Z,6.40
2022-11-27T14:30:47.422Z,6.40
2022-11-27T14:32:53.577Z,6.40
2022-11-27T14:34:58.725Z,6.40
2022-11-27T14:37:05.687Z,6.40
2022-11-27T14:39:25.442Z,6.40
2022-11-27T14:41:32.534Z,6.30
2022-11-27T14:43:38.107Z,6.30
2022-11-27T14:45:48.440Z,6.30
2022-11-27T14:47:58.472Z,6.20
2022-11-27T14:50:04.728Z,6.10
2022-11-27T14:52:16.163Z,6.10
2022-11-27T14:54:29.120Z,6.10
2022-11-27T14:56:38.795Z,6.10
2022-11-27T14:58:53.452Z,6.00
2022-11-27T15:01:02.616Z,6.00
2022-11-27T15:03:13.555Z,6.00
2022-11-27T15:05:25.236Z,6.00
2022-11-27T15:07:32.611Z,6.00
2022-11-27T15:09:49.168Z,6.00
2022-11-27T15:11:56.770Z,6.00
2022-11-27T15:14:05.783Z,5.90
2022-11-27T15:16:19.192Z,5.90
2022-11-27T15:18:26.438Z,5.90
2022-11-27T15:20:42.918Z,5.90
2022-11-27T15:22:52.651Z,5.90
2022-11-27T15:25:09.452Z,5.80
2022-11-27T15:27:23.741Z,5.80
2022-11-27T15:29:38.909Z,5.80
2022-11-27T15:31:54.414Z,5.70
2022-11-27T15:34:09.016Z,5.70
2022-11-27T15:36:24.027Z,5.70
2022-11-27T15:38:29.380Z,5.70
2022-11-27T15:40:40.723Z,5.70
2022-11-27T15:42:46.419Z,5.70
2022-11-27T15:44:57.963Z,5.70
2022-11-27T15:47:05.020Z,5.70
2022-11-27T15:49:15.425Z,5.70
2022-11-27T15:51:21.015Z,5.70
2022-11-27T15:53:26.109Z,5.80
2022-11-27T15:55:33.384Z,5.70
2022-11-27T15:57:41.170Z,5.80
2022-11-27T15:59:46.136Z,5.70
2022-11-27T16:01:52.008Z,5.70
2022-11-27T16:03:57.199Z,5.60
2022-11-27T16:06:07.046Z,5.60
2022-11-27T16:08:14.020Z,5.60
2022-11-27T16:10:19.095Z,5.60
2022-11-27T16:12:24.067Z,5.60
2022-11-27T16:14:31.672Z,5.50
2022-11-27T16:16:38.020Z,5.50
2022-11-27T16:18:43.086Z,5.50
2022-11-27T16:20:48.075Z,5.50
2022-11-27T16:22:53.001Z,5.50
2022-11-27T16:24:57.990Z,5.50
2022-11-27T16:27:02.950Z,5.50
2022-11-27T16:29:10.602Z,5.50
2022-11-27T16:38:05.384Z,5.40
2022-11-27T16:40:21.331Z,5.50
2022-11-27T16:42:26.887Z,5.50
2022-11-27T16:50:45.124Z,5.40
2022-11-27T16:52:54.569Z,5.40
2022-11-27T16:55:03.591Z,5.40
2022-11-27T16:57:08.885Z,5.40
2022-11-27T16:59:17.083Z,5.40
2022-11-27T17:01:25.775Z,5.40
2022-11-27T17:03:30.988Z,5.50
2022-11-27T17:05:41.061Z,5.50
2022-11-27T17:07:46.423Z,5.50
2022-11-27T17:09:51.805Z,5.50
2022-11-27T17:15:06.058Z,5.40
2022-11-27T17:17:11.742Z,5.40
2022-11-27T17:19:39.334Z,5.30
2022-11-27T17:21:45.698Z,5.20
2022-11-27T17:23:51.361Z,5.20
2022-11-27T17:25:56.593Z,5.20
2022-11-27T17:28:03.159Z,5.30
2022-11-27T17:30:13.619Z,5.20
2022-11-27T17:32:19.797Z,5.20
2022-11-27T17:34:27.739Z,5.20
2022-11-27T17:36:37.709Z,5.20
2022-11-27T17:38:44.519Z,5.20
2022-11-27T17:40:50.207Z,5.20
2022-11-27T17:42:56.001Z,5.10
2022-11-27T17:45:01.866Z,5.10
2022-11-27T17:47:09.633Z,5.10
2022-11-27T17:49:16.467Z,5.10
2022-11-27T17:51:23.161Z,5.10
2022-11-27T17:53:28.572Z,5.10
2022-11-27T17:55:33.698Z,5.10
2022-11-27T17:57:38.702Z,5.10
2022-11-27T17:59:44.442Z,5.10
2022-11-27T18:01:52.822Z,5.00
2022-11-27T18:04:04.102Z,5.00
2022-11-27T18:06:10.280Z,5.00
2022-11-27T18:08:15.968Z,5.00
2022-11-27T18:10:22.133Z,5.00
2022-11-27T18:12:27.358Z,4.90
2022-11-27T18:14:33.072Z,4.90
2022-11-27T18:16:50.005Z,4.90
2022-11-27T18:18:55.147Z,4.90
2022-11-27T18:21:20.623Z,4.90
2022-11-27T18:23:27.892Z,4.90
2022-11-27T18:25:33.146Z,4.90
2022-11-27T18:27:38.475Z,4.90
2022-11-27T18:29:47.254Z,4.90
2022-11-27T18:37:35.294Z,4.90
2022-11-27T18:39:44.769Z,4.90
2022-11-27T18:41:50.274Z,5.00
2022-11-27T18:43:55.747Z,5.00
2022-11-27T18:46:09.517Z,5.00
2022-11-27T18:48:18.471Z,5.00
2022-11-27T18:50:30.046Z,5.00
2022-11-27T18:52:52.723Z,5.00
2022-11-27T18:54:58.497Z,5.00
2022-11-27T18:57:13.369Z,5.00
2022-11-27T18:59:18.665Z,5.00
2022-11-27T19:01:29.145Z,5.00
2022-11-27T19:03:42.861Z,5.00
2022-11-27T19:05:54.832Z,5.00
2022-11-27T19:08:06.615Z,4.90
2022-11-27T19:10:14.151Z,5.00
2022-11-27T19:12:19.632Z,5.00
2022-11-27T19:14:26.277Z,5.00
2022-11-27T19:16:36.343Z,5.00
2022-11-27T19:18:44.295Z,5.00
2022-11-27T19:20:52.748Z,5.00
2022-11-27T19:23:04.271Z,5.00
2022-11-27T19:25:11.267Z,5.00
2022-11-27T19:27:23.561Z,5.00
2022-11-27T19:29:28.949Z,5.00
2022-11-27T19:31:37.711Z,5.00
2022-11-27T19:33:44.725Z,5.00
2022-11-27T19:35:51.608Z,5.00
2022-11-27T19:38:00.987Z,5.00
2022-11-27T19:40:11.934Z,5.00
2022-11-27T19:42:19.687Z,5.00
2022-11-27T19:44:29.829Z,5.00
2022-11-27T19:46:37.700Z,5.00
2022-11-27T19:48:45.689Z,5.00
2022-11-27T19:50:53.473Z,5.00
2022-11-27T19:53:04.604Z,4.90
2022-11-27T19:55:14.928Z,4.90
2022-11-27T19:57:21.071Z,4.90
2022-11-27T19:59:29.158Z,4.90
2022-11-27T20:01:46.509Z,4.90
2022-11-27T20:03:52.521Z,4.90
2022-11-27T20:06:17.324Z,4.90
2022-11-27T20:08:31.865Z,4.90
2022-11-27T20:10:44.271Z,4.90
2022-11-27T20:12:52.601Z,4.90
2022-11-27T20:14:59.687Z,4.80
2022-11-27T20:17:08.001Z,4.80
2022-11-27T20:19:18.020Z,4.90
2022-11-27T20:21:27.622Z,4.90
2022-11-27T20:23:33.443Z,4.90
2022-11-27T20:25:44.868Z,4.90
2022-11-27T20:27:50.852Z,4.90
2022-11-27T20:30:00.108Z,4.90
2022-11-27T20:32:06.912Z,4.90
2022-11-27T20:34:19.088Z,4.90
2022-11-27T20:36:32.165Z,4.90
2022-11-27T20:38:39.747Z,4.90
2022-11-27T20:40:50.119Z,4.90
2022-11-27T20:43:01.539Z,4.90
2022-11-27T20:45:10.938Z,4.90
2022-11-27T20:47:22.440Z,4.90
2022-11-27T20:49:33.773Z,5.00
2022-11-27T20:51:39.126Z,5.00
2022-11-27T20:53:50.241Z,5.00
2022-11-27T20:55:58.876Z,5.00
2022-11-27T20:58:04.172Z,5.10
2022-11-27T21:00:12.126Z,5.10
2022-11-27T21:02:21.366Z,5.10
2022-11-27T21:04:28.793Z,5.10
2022-11-27T21:06:40.521Z,5.10
2022-11-27T21:08:49.361Z,5.10
2022-11-27T21:10:54.436Z,5.00
2022-11-27T21:13:04.223Z,5.00
2022-11-27T21:15:14.834Z,5.10
2022-11-27T21:17:20.066Z,5.00
2022-11-27T21:19:35.629Z,5.00
2022-11-27T21:21:43.173Z,5.00
2022-11-27T21:23:48.755Z,5.00
2022-11-27T21:25:54.105Z,5.00
2022-11-27T21:28:05.122Z,5.00
2022-11-27T21:30:14.307Z,5.00
2022-11-27T21:32:22.770Z,5.00
2022-11-27T21:34:30.060Z,4.90
2022-11-27T21:36:38.862Z,4.90
2022-11-27T21:38:45.456Z,4.90
2022-11-27T21:40:52.185Z,5.00
2022-11-27T21:42:57.524Z,4.90
2022-11-27T21:45:05.836Z,5.00
2022-11-27T21:47:13.286Z,5.00
2022-11-27T21:49:21.124Z,4.90
2022-11-27T21:51:26.678Z,4.90
2022-11-27T21:53:34.689Z,4.90
2022-11-27T21:55:43.428Z,4.90
2022-11-27T21:57:48.757Z,5.00
2022-11-27T21:59:58.487Z,5.00
2022-11-27T22:02:07.442Z,4.90
2022-11-27T22:04:12.505Z,4.90
2022-11-27T22:06:20.818Z,4.90
2022-11-27T22:08:25.674Z,4.90
2022-11-27T22:10:30.742Z,4.90
2022-11-27T22:12:37.627Z,5.00
2022-11-27T22:14:43.142Z,4.90
2022-11-27T22:16:49.078Z,5.00
2022-11-27T22:18:58.602Z,5.00
2022-11-27T22:21:09.388Z,5.00
2022-11-27T22:23:15.000Z,4.90
2022-11-27T22:25:22.985Z,5.00
2022-11-27T22:27:30.040Z,4.90
2022-11-27T22:29:36.685Z,4.90
2022-11-27T22:31:42.089Z,4.90
2022-11-27T22:33:49.508Z,4.90
2022-11-27T22:35:57.158Z,4.90
2022-11-27T22:38:05.168Z,4.90
2022-11-27T22:40:12.374Z,4.90
2022-11-27T22:42:17.971Z,4.90
2022-11-27T22:44:23.913Z,4.90
2022-11-27T22:46:32.382Z,4.90
2022-11-27T22:48:37.714Z,4.90
2022-11-27T22:50:43.063Z,4.90
2022-11-27T22:52:53.568Z,4.90
2022-11-27T22:55:02.743Z,5.00
2022-11-27T22:57:08.042Z,5.00
2022-11-27T23:01:44.159Z,5.00
2022-11-27T23:03:49.365Z,5.00
2022-11-27T23:05:56.217Z,5.00
2022-11-27T23:08:04.525Z,5.10
2022-11-27T23:10:12.538Z,5.10
2022-11-27T23:12:17.590Z,5.10
2022-11-27T23:14:22.771Z,5.10
2022-11-27T23:16:29.659Z,5.00
2022-11-27T23:18:35.721Z,5.10
2022-11-27T23:20:44.908Z,5.00
2022-11-27T23:22:50.441Z,5.00
2022-11-27T23:24:59.056Z,5.10
2022-11-27T23:27:04.486Z,5.00
2022-11-27T23:29:10.437Z,5.00
2022-11-27T23:31:34.585Z,5.00
2022-11-27T23:33:41.252Z,5.00
2022-11-27T23:35:46.258Z,4.90
2022-11-27T23:37:53.031Z,5.00
2022-11-27T23:40:00.694Z,5.00
2022-11-27T23:42:05.843Z,5.00
2022-11-27T23:44:10.994Z,5.00
2022-11-27T23:46:20.035Z,5.00
2022-11-27T23:48:25.130Z,5.00
2022-11-27T23:50:30.196Z,5.00
2022-11-27T23:52:35.726Z,4.90
2022-11-27T23:54:41.046Z,5.00
2022-11-27T23:56:49.537Z,5.00
2022-11-27T23:58:56.737Z,4.90
